Startpagina
METAR-TAF:

METAR-TAF

Vliegvelden :

Maputo, Mozambique

Luchthaven Maputo

breedte: 25-55S, lengte: 032-34E, hoogte: 39 m

Actueel weer

Dit bericht is 3 uur en het 3 minuten geleden gemaakt, om 00:00 UTC
Wind 4 kt uit het noorden
Temperatuur 14°C
Vochtigheid 67%
Druk 1015 hPa
Zicht 10 km of meer
geen wolken onder 1500 m en geen cumulonimbus

METAR: FQMA 240000Z 35004KT CAVOK 14/08 Q1015 NOSIG

Tijdstip: 05:03 (03:03 UTC)

Verwachting

Dit bericht is 5 uur en het 3 minuten geleden gemaakt, om 22:00 UTC
Verwachting geldig van 24 om 00 UTC tot 25 om 06 UTC
Wind 8 kt uit het oosten
Zicht 10 km of meer
Weinig wolken op 2500 ft
Wijzigt naar
van 24 om 06 UTC tot 24 om 08 UTC
Wind 15 kt uit het noordnoordwesten
Zicht 10 km of meer
geen wolken onder 1500 m en geen cumulonimbus
Wijzigt naar
van 24 om 18 UTC tot 24 om 20 UTC
Wind 12 kt uit het zuiden met uitschieters tot 22 kt

TAF: FQMA 232200Z 2400/2506 08008KT 9999 FEW025 BECMG 2406/2408 34015KT CAVOK BECMG 2418/2420 17012G22KT TN14/2402Z TX32/2412Z

Waarnemingen en weersverwachtingen van meer dan 4000 vliegvelden (METAR en TAF).

De beschikbare stations zijn de gele en rode punten op de kaart.

Ga met uw muis naar het station om de naam te zien.

Klik dan om waarnemingen en weersverwachtingen te zien.

kaart wijzigen: klik op de groene knoppen met een zwart kruis om in te zoomen, op de groene knop met een streepje om uit te zoomen of op de groene pijlen voor aangrenzende kaarten.


METAR-TAF: